Time;durP1;ratioP1;P1;durP2;ratioP2;P2;SDS_P1;SDS_P2;PMS_P1;PMS_P2;Temp;Humidity;BMP_temperature;BMP_pressure;BME280_temperature;BME280_humidity;BME280_pressure;Samples;Min_cycle;Max_cycle;Signal;HPM_P1;HPM_P2
2021/10/17 00:01:09;;;;;;;;;15.00;14.00;;;;;13.95;45.57;101527.13;5089969;27;45399;-51
2021/10/17 00:03:34;;;;;;;;;14.00;13.50;;;;;13.91;45.43;101521.00;5094633;27;45384;-50
2021/10/17 00:05:59;;;;;;;;;13.00;11.00;;;;;13.90;45.04;101527.19;5093036;27;45296;-50
2021/10/17 00:08:25;;;;;;;;;14.50;12.25;;;;;13.86;45.61;101525.50;5087932;27;45457;-51
2021/10/17 00:10:50;;;;;;;;;12.25;11.75;;;;;13.85;45.52;101520.19;5089795;27;46292;-48
2021/10/17 00:13:15;;;;;;;;;14.25;13.75;;;;;13.80;45.65;101517.66;5094503;27;45300;-49
2021/10/17 00:15:41;;;;;;;;;13.50;13.25;;;;;13.78;45.49;101514.16;5092885;27;45433;-49
2021/10/17 00:18:08;;;;;;;;;14.75;13.50;;;;;13.77;45.63;101517.69;5086731;27;45364;-50
2021/10/17 00:20:34;;;;;;;;;18.50;17.25;;;;;13.74;45.63;101517.75;5088950;27;45289;-49
2021/10/17 00:23:00;;;;;;;;;15.25;13.75;;;;;13.72;45.63;101514.25;5094422;27;46633;-49
2021/10/17 00:25:25;;;;;;;;;14.00;12.75;;;;;13.68;45.37;101513.41;5092996;27;45240;-50
2021/10/17 00:27:51;;;;;;;;;17.75;15.50;;;;;13.65;45.68;101514.34;5091916;27;45246;-50
2021/10/17 00:30:17;;;;;;;;;14.25;13.25;;;;;13.63;45.70;101521.44;5101441;27;45223;-51
2021/10/17 00:32:43;;;;;;;;;19.75;16.50;;;;;13.62;45.58;101522.31;5086924;27;46284;-50
2021/10/17 00:35:10;;;;;;;;;12.75;12.75;;;;;13.59;45.82;101513.56;5090541;27;45165;-51
2021/10/17 00:37:36;;;;;;;;;12.25;12.00;;;;;13.57;45.64;101513.59;5094456;27;45349;-50
2021/10/17 00:40:14;;;;;;;;;21.00;15.75;;;;;13.52;45.70;101502.22;5073451;27;45496;-49
2021/10/17 00:42:40;;;;;;;;;16.50;14.25;;;;;13.52;45.80;101512.78;5087103;27;46001;-49
2021/10/17 00:45:15;;;;;;;;;14.50;12.75;;;;;13.50;45.80;101511.91;5100859;27;45217;-51
2021/10/17 00:47:41;;;;;;;;;17.75;17.00;;;;;13.47;45.73;101514.59;5093368;27;45260;-51
2021/10/17 00:50:08;;;;;;;;;17.00;15.00;;;;;13.45;45.79;101516.41;5082491;27;45205;-48
2021/10/17 00:52:38;;;;;;;;;17.50;12.75;;;;;13.30;45.87;101499.81;5093093;27;45302;-50
2021/10/17 00:55:05;;;;;;;;;17.75;14.75;;;;;13.40;45.89;101518.22;5094354;27;45343;-51
2021/10/17 00:57:32;;;;;;;;;16.25;14.50;;;;;13.38;45.87;101520.00;5092162;27;45244;-48
2021/10/17 00:59:58;;;;;;;;;16.50;14.50;;;;;13.37;46.13;101515.59;5093601;27;45571;-50
2021/10/17 01:02:23;;;;;;;;;17.75;16.25;;;;;13.34;46.01;101511.22;5089291;27;45238;-49
2021/10/17 01:04:49;;;;;;;;;16.50;14.50;;;;;13.30;45.62;101504.25;5087078;27;45410;-50
2021/10/17 01:07:14;;;;;;;;;17.25;16.75;;;;;13.31;45.93;101512.13;5101002;27;45306;-48
2021/10/17 01:09:39;;;;;;;;;17.50;17.25;;;;;13.29;46.24;101503.34;5087038;27;45201;-50
2021/10/17 01:12:06;;;;;;;;;20.75;17.25;;;;;13.26;45.91;101498.13;5091057;27;46832;-51
2021/10/17 01:14:32;;;;;;;;;17.25;15.25;;;;;13.26;46.31;101500.78;5093837;27;45315;-49
2021/10/17 01:16:57;;;;;;;;;14.25;14.00;;;;;13.23;46.08;101499.94;5089448;27;45308;-52
2021/10/17 01:19:23;;;;;;;;;18.25;16.75;;;;;13.24;46.12;101491.13;5086870;27;45324;-50
2021/10/17 01:21:49;;;;;;;;;16.00;16.00;;;;;13.21;46.21;101493.81;5082223;27;47267;-49
2021/10/17 01:24:17;;;;;;;;;21.25;17.50;;;;;13.20;46.31;101495.56;5097927;27;45418;-51
2021/10/17 01:26:43;;;;;;;;;15.25;12.50;;;;;13.18;46.14;101492.06;5071485;27;45299;-47
2021/10/17 01:29:09;;;;;;;;;20.00;17.00;;;;;13.16;45.99;101499.16;5100241;27;45431;-49
2021/10/17 01:31:37;;;;;;;;;14.25;12.50;;;;;13.14;45.97;101493.91;5096076;27;45340;-50
2021/10/17 01:34:04;;;;;;;;;19.00;17.50;;;;;13.13;46.09;101494.78;5098243;27;45403;-52
2021/10/17 01:36:29;;;;;;;;;18.00;17.50;;;;;13.10;46.19;101484.25;5104283;27;45298;-51
2021/10/17 01:38:54;;;;;;;;;24.25;18.75;;;;;13.09;46.14;101485.13;5090381;27;45245;-50
2021/10/17 01:41:20;;;;;;;;;17.50;15.25;;;;;13.09;46.55;101486.91;5095313;27;45307;-50
2021/10/17 01:43:45;;;;;;;;;16.50;16.50;;;;;13.07;46.40;101488.69;5098695;27;45222;-48
2021/10/17 01:46:10;;;;;;;;;20.75;17.00;;;;;13.03;46.52;101484.34;5095821;27;45209;-49
2021/10/17 01:48:36;;;;;;;;;15.00;15.00;;;;;13.02;46.63;101486.13;5101854;27;45428;-47
2021/10/17 01:51:01;;;;;;;;;20.25;17.75;;;;;13.01;46.62;101497.56;5092101;27;46081;-52
2021/10/17 01:53:29;;;;;;;;;16.50;16.00;;;;;12.99;46.37;101502.88;5089936;27;45228;-50
2021/10/17 01:56:01;;;;;;;;;19.50;15.00;;;;;12.97;46.54;101502.00;5092372;27;45352;-50
2021/10/17 01:58:27;;;;;;;;;19.00;18.25;;;;;12.96;46.60;101508.16;5089624;27;45547;-48
2021/10/17 02:00:53;;;;;;;;;19.00;17.75;;;;;12.93;46.41;101497.66;5093534;27;45261;-49
2021/10/17 02:03:19;;;;;;;;;22.50;18.25;;;;;12.93;46.43;101502.06;5096602;27;45322;-51
2021/10/17 02:05:45;;;;;;;;;22.50;18.25;;;;;12.90;46.74;101502.09;5093191;27;45363;-50
2021/10/17 02:08:10;;;;;;;;;23.75;22.00;;;;;12.86;46.51;101495.13;5089734;27;45348;-49
2021/10/17 02:10:36;;;;;;;;;21.50;19.75;;;;;12.87;46.56;101497.75;5093255;27;46052;-47
2021/10/17 02:13:01;;;;;;;;;18.00;17.25;;;;;12.85;46.64;101499.50;5099534;27;45382;-50
2021/10/17 02:15:27;;;;;;;;;21.75;19.75;;;;;12.83;46.52;101501.31;5103640;27;45322;-48
2021/10/17 02:17:52;;;;;;;;;15.75;15.75;;;;;12.80;46.80;101496.94;5089370;27;45375;-50
2021/10/17 02:20:17;;;;;;;;;22.00;19.50;;;;;12.79;46.74;101499.56;5093181;27;45459;-50
2021/10/17 02:22:43;;;;;;;;;21.50;19.25;;;;;12.80;46.92;101496.06;5096568;27;45295;-47
2021/10/17 02:25:09;;;;;;;;;20.00;18.00;;;;;12.78;46.71;101493.44;5074796;27;45410;-47
2021/10/17 02:27:34;;;;;;;;;19.25;17.50;;;;;12.77;46.94;101496.09;5091645;27;45339;-52
2021/10/17 02:30:00;;;;;;;;;18.50;18.50;;;;;12.73;46.73;101483.81;5084815;27;47082;-48
2021/10/17 02:32:25;;;;;;;;;21.50;21.25;;;;;12.74;47.00;101486.47;5089418;27;45233;-51
2021/10/17 02:34:50;;;;;;;;;22.75;22.25;;;;;12.72;47.09;101482.09;5095227;27;45158;-50
2021/10/17 02:37:16;;;;;;;;;22.50;19.50;;;;;12.72;46.77;101487.38;5096517;27;45170;-47
2021/10/17 02:39:41;;;;;;;;;24.50;21.00;;;;;12.70;46.81;101489.16;5090586;27;46252;-50
2021/10/17 02:42:06;;;;;;;;;21.50;20.00;;;;;12.68;47.07;101486.53;5087814;27;45243;-50
2021/10/17 02:44:32;;;;;;;;;24.50;22.25;;;;;12.66;47.03;101483.88;5084623;27;45249;-47
2021/10/17 02:46:57;;;;;;;;;22.25;20.75;;;;;12.65;47.04;101476.91;5102564;27;45492;-49
2021/10/17 02:49:24;;;;;;;;;24.25;21.75;;;;;12.63;47.16;101486.56;5095116;27;45154;-49
2021/10/17 02:51:50;;;;;;;;;23.00;20.00;;;;;12.63;46.98;101483.94;5095887;27;45384;-48
2021/10/17 02:54:17;;;;;;;;;13.75;11.25;;;;;12.61;47.18;101490.97;5089244;27;45331;-50
2021/10/17 02:56:42;;;;;;;;;22.75;19.75;;;;;12.60;47.19;101489.25;5101207;27;45257;-49
2021/10/17 02:59:08;;;;;;;;;27.25;23.00;;;;;12.59;47.08;101483.97;5071940;27;46071;-51
2021/10/17 03:01:33;;;;;;;;;23.00;19.75;;;;;12.58;47.18;101485.75;5088648;27;45358;-48
2021/10/17 03:03:58;;;;;;;;;22.50;21.00;;;;;12.56;47.25;101476.13;5094494;27;45473;-49
2021/10/17 03:06:26;;;;;;;;;25.00;22.00;;;;;12.51;47.28;101482.31;5096859;27;45236;-49
2021/10/17 03:08:52;;;;;;;;;22.00;21.00;;;;;12.51;47.42;101473.50;5094114;27;46073;-52
2021/10/17 03:11:18;;;;;;;;;24.50;24.25;;;;;12.52;47.23;101470.00;5095585;27;45300;-46
2021/10/17 03:13:43;;;;;;;;;23.50;22.50;;;;;12.51;47.36;101468.25;5090919;27;45421;-47
2021/10/17 03:16:08;;;;;;;;;24.50;24.00;;;;;12.48;47.38;101469.16;5088653;27;45246;-50
2021/10/17 03:18:34;;;;;;;;;27.00;25.50;;;;;12.47;47.50;101472.66;5093578;27;46306;-48
2021/10/17 03:20:59;;;;;;;;;29.50;25.25;;;;;12.46;47.40;101475.31;5095434;27;45310;-51
2021/10/17 03:23:25;;;;;;;;;27.25;24.75;;;;;12.46;47.35;101472.69;5091051;27;45454;-50
2021/10/17 03:25:50;;;;;;;;;23.75;22.75;;;;;12.43;47.50;101475.38;5088382;27;45354;-49
2021/10/17 03:28:16;;;;;;;;;25.50;24.00;;;;;12.42;47.58;101479.75;5101995;27;45379;-50
2021/10/17 03:30:41;;;;;;;;;28.00;24.00;;;;;12.42;47.78;101473.63;5101614;27;45441;-49
2021/10/17 03:33:06;;;;;;;;;26.25;23.00;;;;;12.41;47.51;101479.78;5089557;27;45316;-49
2021/10/17 03:35:32;;;;;;;;;28.00;24.75;;;;;12.41;47.44;101475.38;5088350;27;45500;-50
2021/10/17 03:37:57;;;;;;;;;25.50;22.75;;;;;12.39;47.51;101473.63;5094658;27;46123;-49
2021/10/17 03:40:22;;;;;;;;;30.75;26.50;;;;;12.38;47.73;101472.78;5095372;27;45372;-50
2021/10/17 03:42:48;;;;;;;;;23.75;21.75;;;;;12.35;47.74;101471.03;5089101;27;45296;-49
2021/10/17 03:45:13;;;;;;;;;24.00;23.25;;;;;12.35;47.70;101468.41;5101214;27;45460;-51
2021/10/17 03:47:38;;;;;;;;;23.50;23.25;;;;;12.32;47.74;101455.25;5093838;27;46128;-50
2021/10/17 03:50:04;;;;;;;;;26.50;25.50;;;;;12.32;47.78;101457.88;5088338;27;45314;-50
2021/10/17 03:52:30;;;;;;;;;27.75;24.75;;;;;12.31;47.60;101466.69;5094565;27;45280;-51
2021/10/17 03:54:55;;;;;;;;;27.25;24.25;;;;;12.30;47.61;101457.03;5094342;27;45525;-46
2021/10/17 03:57:20;;;;;;;;;29.25;28.50;;;;;12.28;47.80;101456.19;5094197;27;46118;-50
2021/10/17 03:59:46;;;;;;;;;28.75;27.25;;;;;12.22;47.66;101445.69;5094689;27;45256;-49
2021/10/17 04:02:11;;;;;;;;;27.25;26.25;;;;;12.23;47.76;101452.72;5089077;27;45223;-48
2021/10/17 04:04:36;;;;;;;;;26.25;23.50;;;;;12.24;47.87;101456.22;5087878;27;45470;-47
2021/10/17 04:07:02;;;;;;;;;33.00;26.50;;;;;12.21;48.04;101453.63;5094373;27;46008;-50
2021/10/17 04:09:27;;;;;;;;;26.25;24.75;;;;;12.21;48.00;101451.84;5094716;27;45250;-50
2021/10/17 04:11:53;;;;;;;;;29.00;26.00;;;;;12.20;48.02;101460.66;5070541;27;45225;-46
2021/10/17 04:14:18;;;;;;;;;28.50;27.75;;;;;12.18;48.07;101454.53;5087858;27;45414;-48
2021/10/17 04:16:44;;;;;;;;;26.25;24.50;;;;;12.16;47.94;101461.56;5094063;27;45293;-46
2021/10/17 04:19:09;;;;;;;;;32.50;24.25;;;;;12.15;48.12;101463.34;5094400;27;45264;-48
2021/10/17 04:21:34;;;;;;;;;25.00;24.50;;;;;12.14;48.02;101461.56;5088767;27;45407;-46
2021/10/17 04:24:00;;;;;;;;;25.00;22.50;;;;;12.12;48.11;101450.16;5087727;27;45418;-47
2021/10/17 04:26:25;;;;;;;;;25.75;19.50;;;;;12.11;47.89;101455.47;5093702;27;45485;-47
2021/10/17 04:28:50;;;;;;;;;23.75;21.75;;;;;12.07;48.33;101451.97;5099134;27;45339;-47
2021/10/17 04:31:16;;;;;;;;;23.75;21.25;;;;;12.09;48.13;101449.31;5077707;28;45863;-50
2021/10/17 04:33:41;;;;;;;;;22.50;19.50;;;;;12.07;48.15;101453.75;5092875;27;45527;-47
2021/10/17 04:36:07;;;;;;;;;23.00;21.00;;;;;12.05;48.06;101458.16;5087342;27;45348;-51
2021/10/17 04:38:33;;;;;;;;;22.50;21.00;;;;;12.00;48.23;101445.03;5082883;27;45392;-47
2021/10/17 04:40:59;;;;;;;;;20.25;17.50;;;;;12.02;48.20;101454.66;5077324;28;45350;-49
2021/10/17 04:43:25;;;;;;;;;24.75;20.75;;;;;12.02;48.18;101451.16;5092450;27;45529;-50
2021/10/17 04:45:50;;;;;;;;;24.75;22.25;;;;;11.99;48.20;101446.78;5094852;27;47306;-50
2021/10/17 04:48:16;;;;;;;;;25.50;22.00;;;;;11.97;48.28;101451.19;5097291;27;45391;-49
2021/10/17 04:50:41;;;;;;;;;29.75;25.00;;;;;11.94;48.13;101453.81;5096178;27;45342;-50
2021/10/17 04:53:06;;;;;;;;;21.75;21.75;;;;;11.92;48.30;101452.09;5099442;27;45410;-50
2021/10/17 04:55:32;;;;;;;;;21.50;20.25;;;;;11.93;48.21;101453.84;5096027;27;46995;-50
2021/10/17 04:57:57;;;;;;;;;25.00;20.75;;;;;11.88;48.32;101456.50;5099130;27;45260;-49
2021/10/17 05:00:23;;;;;;;;;25.00;22.50;;;;;11.89;48.29;101455.63;5098863;27;45292;-47
2021/10/17 05:02:48;;;;;;;;;25.25;21.00;;;;;11.88;48.36;101459.13;5099196;27;45265;-49
2021/10/17 05:05:14;;;;;;;;;25.50;22.75;;;;;11.87;48.35;101460.00;5098058;27;45269;-49
2021/10/17 05:07:41;;;;;;;;;28.75;24.50;;;;;11.84;48.55;101452.16;5099321;27;45422;-50
2021/10/17 05:10:07;;;;;;;;;31.00;23.25;;;;;11.82;48.31;101449.53;5099145;27;45374;-50
2021/10/17 05:12:32;;;;;;;;;23.50;23.50;;;;;11.82;48.29;101449.53;5098468;27;45633;-49
2021/10/17 05:14:58;;;;;;;;;23.25;19.00;;;;;11.82;48.47;101453.91;5098870;27;47047;-49
2021/10/17 05:17:23;;;;;;;;;20.50;20.25;;;;;11.82;48.41;101459.19;5098764;27;45426;-49
2021/10/17 05:19:48;;;;;;;;;25.75;21.75;;;;;11.79;48.58;101461.84;5099170;27;45387;-49
2021/10/17 05:22:13;;;;;;;;;26.50;22.75;;;;;11.77;48.42;101466.25;5098732;27;45607;-47
2021/10/17 05:24:39;;;;;;;;;21.25;20.00;;;;;11.76;48.37;101456.59;5098718;27;45321;-51
2021/10/17 05:27:04;;;;;;;;;20.00;19.00;;;;;11.77;48.26;101464.47;5098398;27;45433;-49
2021/10/17 05:29:29;;;;;;;;;25.25;21.75;;;;;11.76;48.42;101473.28;5098729;27;45357;-51
2021/10/17 05:31:55;;;;;;;;;21.00;21.00;;;;;11.75;48.50;101468.91;5098640;27;45371;-46
2021/10/17 05:34:20;;;;;;;;;23.25;21.50;;;;;11.71;48.55;101460.16;5098554;27;45200;-50
2021/10/17 05:36:45;;;;;;;;;22.25;20.50;;;;;11.71;48.65;101462.78;5098831;27;45239;-50
2021/10/17 05:39:11;;;;;;;;;23.50;21.00;;;;;11.71;48.58;101460.16;5080425;27;45430;-50
2021/10/17 05:41:37;;;;;;;;;21.00;20.25;;;;;11.70;48.56;101463.66;5098559;27;45152;-46
2021/10/17 05:44:03;;;;;;;;;18.00;16.75;;;;;11.69;48.43;101468.94;5079837;27;47039;-47
2021/10/17 05:46:28;;;;;;;;;22.50;19.50;;;;;11.70;48.57;101474.19;5098795;27;45212;-47
2021/10/17 05:48:54;;;;;;;;;24.75;19.75;;;;;11.69;48.59;101472.44;5080081;27;45224;-50
2021/10/17 05:51:19;;;;;;;;;21.25;19.25;;;;;11.66;48.74;101469.84;5081212;27;45405;-49
2021/10/17 05:53:45;;;;;;;;;28.25;19.00;;;;;11.65;48.65;101473.34;5096976;27;46515;-47
2021/10/17 05:56:10;;;;;;;;;22.75;20.50;;;;;11.65;48.75;101475.13;5096532;27;45450;-50
2021/10/17 05:58:35;;;;;;;;;26.50;24.25;;;;;11.65;48.76;101473.34;5098312;27;45353;-47
2021/10/17 06:01:01;;;;;;;;;21.00;20.50;;;;;11.62;48.83;101470.75;5098575;27;45528;-50
2021/10/17 06:03:26;;;;;;;;;19.00;18.25;;;;;11.61;48.63;101471.63;5098242;27;46188;-46
2021/10/17 06:05:51;;;;;;;;;22.25;20.75;;;;;11.61;48.66;101474.25;5089240;27;45371;-50
2021/10/17 06:08:19;;;;;;;;;23.00;22.50;;;;;11.60;48.74;101476.91;5092846;27;45295;-47
2021/10/17 06:10:44;;;;;;;;;26.50;21.50;;;;;11.59;48.73;101480.44;5090047;27;45399;-46
2021/10/17 06:13:09;;;;;;;;;24.50;23.50;;;;;11.59;48.76;101480.44;5085755;27;45366;-46
2021/10/17 06:15:35;;;;;;;;;20.75;19.25;;;;;11.59;48.95;101480.44;5089066;27;45281;-48
2021/10/17 06:18:00;;;;;;;;;17.25;17.25;;;;;11.57;48.80;101483.03;5096536;27;45274;-48
2021/10/17 06:20:25;;;;;;;;;21.75;20.25;;;;;11.55;48.74;101484.84;5094145;27;45312;-48
2021/10/17 06:22:51;;;;;;;;;22.25;20.75;;;;;11.55;48.84;101490.97;5089602;27;46269;-46
2021/10/17 06:25:17;;;;;;;;;19.75;16.50;;;;;11.49;48.85;101485.72;5092314;27;45315;-47
2021/10/17 06:27:42;;;;;;;;;24.75;22.75;;;;;11.54;48.72;101496.25;5080248;27;45189;-47
2021/10/17 06:30:08;;;;;;;;;27.75;24.25;;;;;11.54;49.01;101501.50;5075643;28;45965;-47
2021/10/17 06:32:33;;;;;;;;;27.25;21.75;;;;;11.52;48.95;101503.25;5096215;27;46442;-47
2021/10/17 06:34:58;;;;;;;;;26.00;23.25;;;;;11.50;48.93;101505.91;5092135;27;45236;-48
2021/10/17 06:37:24;;;;;;;;;24.75;22.25;;;;;11.49;49.03;101504.16;5101398;27;45326;-49
2021/10/17 06:39:49;;;;;;;;;24.00;21.00;;;;;11.49;49.04;101508.56;5101575;27;45277;-50
2021/10/17 06:42:14;;;;;;;;;24.75;23.75;;;;;11.49;48.87;101517.31;5100917;27;45335;-46
2021/10/17 06:44:40;;;;;;;;;30.25;26.25;;;;;11.47;49.14;101513.84;5082132;27;45578;-48
2021/10/17 06:47:05;;;;;;;;;22.00;20.00;;;;;11.46;49.09;101514.72;5096481;27;46083;-49
2021/10/17 06:49:31;;;;;;;;;21.75;20.75;;;;;11.47;48.86;101521.72;5100369;27;45455;-52
2021/10/17 06:51:56;;;;;;;;;23.00;22.25;;;;;11.46;49.09;101517.34;5082875;27;47107;-46
2021/10/17 06:54:21;;;;;;;;;21.75;20.00;;;;;11.45;49.08;101515.59;5098842;27;45453;-51
2021/10/17 06:56:47;;;;;;;;;26.00;22.25;;;;;11.44;49.19;101527.00;5098333;27;45459;-49
2021/10/17 06:59:13;;;;;;;;;25.00;21.25;;;;;11.46;49.09;101525.25;5100791;27;45627;-50
2021/10/17 07:01:38;;;;;;;;;25.50;22.50;;;;;11.45;49.11;101526.13;5100581;27;47252;-48
2021/10/17 07:04:05;;;;;;;;;22.25;21.00;;;;;11.47;49.13;101528.72;5100742;27;45297;-47
2021/10/17 07:06:30;;;;;;;;;22.50;21.00;;;;;11.47;49.16;101537.53;5100819;27;45509;-49
2021/10/17 07:08:55;;;;;;;;;20.50;20.00;;;;;11.46;49.20;101535.78;5100918;27;45248;-46
2021/10/17 07:11:21;;;;;;;;;24.25;22.75;;;;;11.48;49.12;101541.03;5082195;27;46019;-49
2021/10/17 07:13:46;;;;;;;;;24.00;21.50;;;;;11.48;49.21;101536.66;5082458;27;45315;-48
2021/10/17 07:16:13;;;;;;;;;26.25;24.00;;;;;11.49;49.08;101532.25;5100872;27;45204;-47
2021/10/17 07:18:38;;;;;;;;;25.25;25.00;;;;;11.47;49.04;101540.16;5100689;27;45313;-50
2021/10/17 07:21:04;;;;;;;;;25.50;23.75;;;;;11.49;49.25;101537.50;5100501;27;46020;-51
2021/10/17 07:23:29;;;;;;;;;22.25;20.25;;;;;11.51;48.83;101541.03;5100621;27;45339;-48
2021/10/17 07:25:54;;;;;;;;;24.00;22.50;;;;;11.52;49.14;101537.47;5098504;27;45245;-48
2021/10/17 07:28:20;;;;;;;;;27.25;24.25;;;;;11.53;49.25;101534.88;5094308;27;45434;-50
2021/10/17 07:30:45;;;;;;;;;28.75;25.25;;;;;11.56;49.29;101536.59;5100125;27;46031;-47
2021/10/17 07:33:11;;;;;;;;;34.00;30.00;;;;;11.58;49.05;101537.44;5100461;27;45490;-51
2021/10/17 07:35:36;;;;;;;;;25.00;23.00;;;;;11.60;49.33;101537.47;5081729;27;45375;-46
2021/10/17 07:38:02;;;;;;;;;33.00;28.75;;;;;11.62;49.24;101535.69;5100642;27;45439;-48
2021/10/17 07:40:28;;;;;;;;;33.25;29.00;;;;;11.61;49.35;101533.91;5100178;27;45504;-48
2021/10/17 07:42:53;;;;;;;;;30.50;30.00;;;;;11.67;49.51;101541.78;5081983;27;45562;-46
2021/10/17 07:45:18;;;;;;;;;27.25;25.50;;;;;11.70;49.63;101541.78;5100250;27;45728;-50
2021/10/17 07:47:44;;;;;;;;;28.75;26.75;;;;;11.73;49.38;101551.41;5098491;27;45464;-48
2021/10/17 07:50:10;;;;;;;;;32.75;29.25;;;;;11.74;49.34;101537.38;5100219;27;45822;-54
2021/10/17 07:52:36;;;;;;;;;28.50;24.00;;;;;11.70;49.62;101526.84;5100158;27;45437;-50
2021/10/17 07:55:03;;;;;;;;;33.50;29.75;;;;;11.82;49.51;101551.34;5080642;27;45281;-51
2021/10/17 07:57:28;;;;;;;;;32.75;27.50;;;;;11.82;49.51;101540.81;5100075;27;45342;-52
2021/10/17 07:59:54;;;;;;;;;24.25;23.75;;;;;11.87;49.53;101544.28;5099889;27;45540;-52
2021/10/17 08:02:19;;;;;;;;;32.25;26.50;;;;;11.91;49.49;101542.50;5100029;27;45373;-53
2021/10/17 08:04:48;;;;;;;;;29.25;25.00;;;;;11.93;49.53;101538.97;5087166;27;45302;-52
2021/10/17 08:07:16;;;;;;;;;31.25;26.75;;;;;11.97;49.55;101546.00;5083277;27;45397;-52
2021/10/17 08:09:42;;;;;;;;;28.00;25.00;;;;;12.00;49.68;101548.63;5069208;27;47211;-51
2021/10/17 08:12:07;;;;;;;;;40.75;35.75;;;;;12.05;49.82;101539.81;5100791;27;45328;-52
2021/10/17 08:14:32;;;;;;;;;31.00;28.50;;;;;12.10;49.57;101545.91;5087555;27;45288;-54
2021/10/17 08:16:58;;;;;;;;;65.50;51.25;;;;;12.14;49.53;101545.03;5092018;27;45339;-51
2021/10/17 08:19:23;;;;;;;;;34.75;30.75;;;;;12.12;49.54;101538.88;5047726;27;48319;-52
2021/10/17 08:21:48;;;;;;;;;35.75;32.00;;;;;12.24;49.60;101551.97;5091987;27;45211;-56
2021/10/17 08:24:14;;;;;;;;;31.25;29.75;;;;;12.29;49.72;101547.53;5078696;27;45344;-52
2021/10/17 08:26:41;;;;;;;;;32.25;29.00;;;;;12.32;49.68;101541.34;5091830;27;45523;-56
2021/10/17 08:29:06;;;;;;;;;31.75;28.00;;;;;12.40;49.55;101550.09;5099767;27;46695;-48
2021/10/17 08:31:31;;;;;;;;;31.75;30.25;;;;;12.46;49.75;101546.50;5099699;27;45419;-51
2021/10/17 08:33:57;;;;;;;;;29.50;28.00;;;;;12.51;49.75;101542.94;5098345;27;45643;-52
2021/10/17 08:36:22;;;;;;;;;34.25;31.25;;;;;12.59;49.61;101547.25;5098638;27;45438;-49
2021/10/17 08:38:47;;;;;;;;;35.25;30.25;;;;;12.65;49.73;101537.53;5098522;27;45388;-52
2021/10/17 08:41:13;;;;;;;;;38.00;33.25;;;;;12.73;49.58;101536.56;5098825;27;45402;-51
2021/10/17 08:43:39;;;;;;;;;28.00;26.50;;;;;12.82;49.65;101531.22;5098425;27;45403;-51
2021/10/17 08:46:05;;;;;;;;;32.50;27.00;;;;;12.93;49.74;101525.78;5098718;27;45486;-52
2021/10/17 08:48:32;;;;;;;;;26.50;23.75;;;;;13.04;49.83;101530.97;5096408;27;45402;-52
2021/10/17 08:50:58;;;;;;;;;29.75;25.25;;;;;13.14;49.37;101528.19;5099503;27;45545;-52
2021/10/17 08:53:24;;;;;;;;;26.00;24.25;;;;;13.28;49.65;101530.66;5099163;27;45398;-51
2021/10/17 08:55:49;;;;;;;;;30.00;25.75;;;;;13.39;49.77;101527.03;5095800;27;45499;-50
2021/10/17 08:58:15;;;;;;;;;24.00;24.00;;;;;13.51;50.04;101536.53;5097529;27;45213;-51
2021/10/17 09:00:40;;;;;;;;;29.00;25.75;;;;;13.61;49.45;101523.19;5080988;27;45386;-49
2021/10/17 09:03:06;;;;;;;;;26.00;23.75;;;;;13.74;49.57;101523.88;5098975;27;45298;-51
2021/10/17 09:05:43;;;;;;;;;27.25;26.25;;;;;13.87;49.57;101519.28;5098920;27;45339;-49
2021/10/17 09:08:26;;;;;;;;;28.25;26.00;;;;;14.00;49.35;101516.44;5097497;27;46284;-51
2021/10/17 09:10:52;;;;;;;;;25.25;25.00;;;;;14.11;49.55;101525.97;5098068;27;45842;-51
2021/10/17 09:13:17;;;;;;;;;24.75;24.00;;;;;14.22;49.73;101520.47;5098620;27;45740;-50
2021/10/17 09:15:43;;;;;;;;;26.25;25.75;;;;;14.35;49.63;101517.63;5080799;27;45646;-51
2021/10/17 09:18:16;;;;;;;;;25.00;25.00;;;;;14.47;49.63;101528.00;5098655;27;46253;-51
2021/10/17 09:20:48;;;;;;;;;23.25;21.50;;;;;14.59;49.66;101529.53;5077945;27;45319;-51
2021/10/17 09:23:14;;;;;;;;;27.50;23.75;;;;;14.70;49.33;101532.03;5098945;27;45526;-50
2021/10/17 09:25:40;;;;;;;;;27.00;23.50;;;;;14.81;49.26;101543.28;5092802;27;45257;-49
2021/10/17 09:28:21;;;;;;;;;29.00;27.75;;;;;14.92;49.12;101535.13;5079944;27;47389;-51
2021/10/17 09:31:17;;;;;;;;;24.00;21.50;;;;;15.07;49.33;101526.03;5096747;27;45438;-51
2021/10/17 09:33:49;;;;;;;;;28.50;26.75;;;;;15.20;49.16;101532.78;5076944;27;45391;-49
2021/10/17 09:36:24;;;;;;;;;28.25;21.75;;;;;15.33;49.20;101527.22;5096334;27;45385;-48
2021/10/17 09:38:53;;;;;;;;;23.50;23.00;;;;;15.44;49.06;101523.47;5095255;27;46941;-52
2021/10/17 09:41:22;;;;;;;;;25.75;23.00;;;;;15.58;48.96;101524.91;5098149;27;45308;-51
2021/10/17 09:43:53;;;;;;;;;24.00;21.75;;;;;15.71;49.24;101522.84;5094693;27;46532;-51
2021/10/17 09:46:19;;;;;;;;;24.50;23.25;;;;;15.84;49.02;101527.00;5098386;27;45349;-53
2021/10/17 09:48:45;;;;;;;;;23.50;23.00;;;;;15.94;49.05;101522.34;5095290;27;45674;-52
2021/10/17 09:51:14;;;;;;;;;20.25;20.25;;;;;16.07;48.78;101520.25;5081243;27;45920;-48
2021/10/17 09:53:39;;;;;;;;;26.00;22.50;;;;;16.19;48.68;101519.09;5101004;27;45527;-53
2021/10/17 09:56:05;;;;;;;;;24.75;21.00;;;;;16.31;48.67;101504.66;5083590;27;45448;-50
2021/10/17 09:58:30;;;;;;;;;24.25;22.25;;;;;16.43;48.49;101509.63;5101613;27;45449;-52
2021/10/17 10:00:57;;;;;;;;;21.50;20.00;;;;;16.53;48.84;101513.78;5101636;27;45285;-52
2021/10/17 10:03:25;;;;;;;;;20.00;16.25;;;;;16.62;48.47;101506.50;5101750;27;45321;-51
2021/10/17 10:05:50;;;;;;;;;106.67;99.00;;;;;16.73;48.32;101504.41;5101812;27;45481;-51
2021/10/17 10:08:21;;;;;;;;;17.25;17.25;;;;;16.83;48.23;101508.53;5083316;27;47012;-50
2021/10/17 10:10:48;;;;;;;;;19.75;17.00;;;;;16.95;48.37;101511.78;5098716;27;45490;-49
2021/10/17 10:13:15;;;;;;;;;14.00;13.75;;;;;17.05;48.03;101507.94;5100901;27;45444;-50
2021/10/17 10:15:43;;;;;;;;;18.25;17.75;;;;;17.14;47.95;101505.00;5101753;27;45527;-49
2021/10/17 10:18:11;;;;;;;;;23.25;20.00;;;;;17.24;48.09;101507.41;5101354;27;45817;-48
2021/10/17 10:20:37;;;;;;;;;20.00;17.25;;;;;17.31;47.77;101506.31;5091782;27;45362;-51
2021/10/17 10:23:06;;;;;;;;;20.75;19.50;;;;;17.42;47.70;101512.19;5098713;27;45308;-53
2021/10/17 10:25:31;;;;;;;;;17.50;17.50;;;;;17.50;47.64;101501.31;5101304;27;45472;-47
2021/10/17 10:27:58;;;;;;;;;18.75;18.25;;;;;17.60;47.46;101504.56;5101116;27;46081;-51
2021/10/17 10:30:29;;;;;;;;;20.00;18.75;;;;;17.68;47.38;101507.81;5098913;27;45728;-51
2021/10/17 10:33:16;;;;;;;;;13.50;13.25;;;;;17.77;46.93;101499.53;5101248;27;45374;-52
2021/10/17 10:36:03;;;;;;;;;19.00;16.75;;;;;17.84;47.33;101506.41;5076405;27;45731;-50
2021/10/17 10:39:01;;;;;;;;;13.50;13.50;;;;;17.92;47.12;101502.63;5096123;27;46978;-47
2021/10/17 10:41:31;;;;;;;;;17.75;12.75;;;;;17.98;47.19;101500.66;5064028;27;45297;-46
2021/10/17 10:44:24;;;;;;;;;16.25;15.75;;;;;18.06;47.13;101508.38;5100624;27;45542;-44
2021/10/17 10:46:52;;;;;;;;;17.75;16.75;;;;;18.13;46.79;101501.94;5098140;27;45282;-46
2021/10/17 10:49:41;;;;;;;;;48.50;41.00;;;;;18.22;46.82;101494.59;5100105;27;46289;-44
2021/10/17 10:52:30;;;;;;;;;17.75;16.25;;;;;18.30;46.73;101500.50;5098670;27;45372;-44
2021/10/17 10:55:09;;;;;;;;;18.25;16.00;;;;;18.39;46.29;101497.53;5099881;27;45492;-48
2021/10/17 10:57:42;;;;;;;;;13.00;11.50;;;;;18.46;46.81;101506.16;5093568;27;45532;-46
2021/10/17 11:00:12;;;;;;;;;14.50;12.75;;;;;18.54;46.91;101504.13;5095533;27;46171;-51
2021/10/17 11:02:59;;;;;;;;;15.25;14.25;;;;;18.61;46.60;101497.63;5091591;27;45261;-50
2021/10/17 11:05:27;;;;;;;;;11.75;11.00;;;;;18.74;46.27;101499.84;5088891;27;45605;-47
2021/10/17 11:08:10;;;;;;;;;12.50;12.25;;;;;18.86;46.43;101502.06;5101561;27;45365;-50